PWSweather.com
Personal Weather Stations
Station Observations
KNCCHINA3
Red Tractor Trail, China Grove, NC 28023

Red Tractor TrailChina Grove, NC 28023

Lat: 35.59751, Lon: -80.60201

Elevation: 800

Station Type: Oregon Scientific WMR 968

http://www.joesweathergarage.com

High Low Average
Temperature 83.1°F28.4°C 47.2°F8.4°C 64.4°F18.0°C
Dew Point 61.4°F16.3°C 39.6°F4.2°C 47.3°F8.5°C
Winds 12.5 mph 20.1 kmh Calm Calm 3.0 mph S4.8 kmh S
Wind Gusts 17.4 mph28.0 kmh -- 5.0 mph8.0 kmh
Humidity 98% 29% 61%
Pressure 29.94 in1013.9 mb 29.80 in1009.1 mb -
Precipitation 0.00 in0.0 mm - -
Hour Temp Dew Point Humidity Winds Wind Gusts Pressure Precip Precip Rate Daily Precip Total
12:01 AM 52.1°F11.2°C 51.4°F10.8°C 98% Calm Calm -- 29.85 in1010.8 mb 0.00 in0.0 mm 0.00 in0.0 mm 0.00 in0.0 mm
12:06 AM 52.1°F11.2°C 51.4°F10.8°C 98% 2.5 mph ESE4.0 kmh ESE 3.2 mph5.1 kmh 29.83 in1010.2 mb 0.00 in0.0 mm 0.00 in0.0 mm 0.00 in0.0 mm
12:11 AM 51.9°F11.1°C 51.2°F10.7°C 98% Calm Calm 3.2 mph5.1 kmh 29.83 in1010.2 mb 0.00 in0.0 mm 0.00 in0.0 mm 0.00 in0.0 mm
12:16 AM 51.7°F10.9°C 51.0°F10.6°C 98% Calm Calm -- 29.83 in1010.2 mb 0.00 in0.0 mm 0.00 in0.0 mm 0.00 in0.0 mm
12:21 AM 51.7°F10.9°C 51.0°F10.6°C 98% Calm Calm 2.2 mph3.5 kmh 29.85 in1010.8 mb 0.00 in0.0 mm 0.00 in0.0 mm 0.00 in0.0 mm
12:26 AM 51.7°F10.9°C 51.0°F10.6°C 98% Calm Calm 2.2 mph3.5 kmh 29.85 in1010.8 mb 0.00 in0.0 mm 0.00 in0.0 mm 0.00 in0.0 mm
12:31 AM 51.5°F10.8°C 50.8°F10.4°C 98% Calm Calm -- 29.85 in1010.8 mb 0.00 in0.0 mm 0.00 in0.0 mm 0.00 in0.0 mm
12:40 AM 51.5°F10.8°C 50.8°F10.4°C 98% Calm Calm -- 29.85 in1010.8 mb 0.00 in0.0 mm 0.00 in0.0 mm 0.00 in0.0 mm
12:45 AM 51.5°F10.8°C 50.8°F10.4°C 98% Calm Calm -- 29.85 in1010.8 mb 0.00 in0.0 mm 0.00 in0.0 mm 0.00 in0.0 mm
12:50 AM 51.5°F10.8°C 50.8°F10.4°C 98% Calm Calm -- 29.85 in1010.8 mb 0.00 in0.0 mm 0.00 in0.0 mm 0.00 in0.0 mm
12:55 AM 51.5°F10.8°C 50.8°F10.4°C 98% Calm Calm -- 29.85 in1010.8 mb 0.00 in0.0 mm 0.00 in0.0 mm 0.00 in0.0 mm
01:00 AM 51.5°F10.8°C 50.8°F10.4°C 98% 2.2 mph ESE3.5 kmh ESE 2.2 mph3.5 kmh 29.85 in1010.8 mb 0.00 in0.0 mm 0.00 in0.0 mm 0.00 in0.0 mm
01:05 AM 51.3°F10.7°C 50.6°F10.3°C 98% 1.8 mph ESE2.9 kmh ESE 2.6 mph4.2 kmh 29.85 in1010.8 mb 0.00 in0.0 mm 0.00 in0.0 mm 0.00 in0.0 mm
01:10 AM 51.3°F10.7°C 50.6°F10.3°C 98% Calm Calm 2.6 mph4.2 kmh 29.85 in1010.8 mb 0.00 in0.0 mm 0.00 in0.0 mm 0.00 in0.0 mm
01:15 AM 51.2°F10.7°C 50.5°F10.3°C 98% Calm Calm -- 29.85 in1010.8 mb 0.00 in0.0 mm 0.00 in0.0 mm 0.00 in0.0 mm
01:20 AM 51.0°F10.6°C 50.3°F10.2°C 98% Calm Calm -- 29.85 in1010.8 mb 0.00 in0.0 mm 0.00 in0.0 mm 0.00 in0.0 mm
01:25 AM 51.0°F10.6°C 50.3°F10.2°C 98% Calm Calm -- 29.85 in1010.8 mb 0.00 in0.0 mm 0.00 in0.0 mm 0.00 in0.0 mm
01:31 AM 50.8°F10.4°C 50.1°F10.1°C 98% Calm Calm -- 29.85 in1010.8 mb 0.00 in0.0 mm 0.00 in0.0 mm 0.00 in0.0 mm
01:36 AM 50.6°F10.3°C 49.9°F9.9°C 98% 2.8 mph SSE4.5 kmh SSE 3.2 mph5.1 kmh 29.85 in1010.8 mb 0.00 in0.0 mm 0.00 in0.0 mm 0.00 in0.0 mm
01:41 AM 50.6°F10.3°C 49.9°F9.9°C 98% Calm Calm 3.2 mph5.1 kmh 29.85 in1010.8 mb 0.00 in0.0 mm 0.00 in0.0 mm 0.00 in0.0 mm
01:46 AM 50.4°F10.2°C 49.7°F9.8°C 98% Calm Calm -- 29.85 in1010.8 mb 0.00 in0.0 mm 0.00 in0.0 mm 0.00 in0.0 mm
01:52 AM 50.4°F10.2°C 49.7°F9.8°C 98% Calm Calm -- 29.85 in1010.8 mb 0.00 in0.0 mm 0.00 in0.0 mm 0.00 in0.0 mm
01:57 AM 50.3°F10.2°C 49.6°F9.8°C 98% Calm Calm -- 29.85 in1010.8 mb 0.00 in0.0 mm 0.00 in0.0 mm 0.00 in0.0 mm
02:03 AM 50.1°F10.1°C 49.4°F9.7°C 98% 2.9 mph SSE4.7 kmh SSE 3.2 mph5.1 kmh 29.85 in1010.8 mb 0.00 in0.0 mm 0.00 in0.0 mm 0.00 in0.0 mm
02:08 AM 50.1°F10.1°C 49.4°F9.7°C 98% Calm Calm 3.2 mph5.1 kmh 29.85 in1010.8 mb 0.00 in0.0 mm 0.00 in0.0 mm 0.00 in0.0 mm
02:13 AM 50.1°F10.1°C 49.4°F9.7°C 98% 1.8 mph SSE2.9 kmh SSE 2.6 mph4.2 kmh 29.85 in1010.8 mb 0.00 in0.0 mm 0.00 in0.0 mm 0.00 in0.0 mm
02:18 AM 49.9°F9.9°C 49.2°F9.6°C 98% Calm Calm 2.6 mph4.2 kmh 29.85 in1010.8 mb 0.00 in0.0 mm 0.00 in0.0 mm 0.00 in0.0 mm
02:24 AM 49.5°F9.7°C 48.8°F9.3°C 98% Calm Calm -- 29.83 in1010.2 mb 0.00 in0.0 mm 0.00 in0.0 mm 0.00 in0.0 mm
02:29 AM 49.5°F9.7°C 48.8°F9.3°C 98% Calm Calm -- 29.83 in1010.2 mb 0.00 in0.0 mm 0.00 in0.0 mm 0.00 in0.0 mm
02:34 AM 49.5°F9.7°C 48.8°F9.3°C 98% Calm Calm -- 29.83 in1010.2 mb 0.00 in0.0 mm 0.00 in0.0 mm 0.00 in0.0 mm
02:39 AM 49.4°F9.7°C 48.7°F9.3°C 98% Calm Calm -- 29.85 in1010.8 mb 0.00 in0.0 mm 0.00 in0.0 mm 0.00 in0.0 mm
02:44 AM 49.5°F9.7°C 48.8°F9.3°C 98% Calm Calm -- 29.85 in1010.8 mb 0.00 in0.0 mm 0.00 in0.0 mm 0.00 in0.0 mm
02:49 AM 49.4°F9.7°C 48.7°F9.3°C 98% Calm Calm -- 29.85 in1010.8 mb 0.00 in0.0 mm 0.00 in0.0 mm 0.00 in0.0 mm
02:54 AM 49.4°F9.7°C 48.7°F9.3°C 98% Calm Calm -- 29.83 in1010.2 mb 0.00 in0.0 mm 0.00 in0.0 mm 0.00 in0.0 mm
02:59 AM 49.4°F9.7°C 48.7°F9.3°C 98% Calm Calm -- 29.83 in1010.2 mb 0.00 in0.0 mm 0.00 in0.0 mm 0.00 in0.0 mm
03:05 AM 49.4°F9.7°C 48.7°F9.3°C 98% Calm Calm -- 29.83 in1010.2 mb 0.00 in0.0 mm 0.00 in0.0 mm 0.00 in0.0 mm
03:10 AM 49.2°F9.6°C 48.5°F9.2°C 98% Calm Calm -- 29.83 in1010.2 mb 0.00 in0.0 mm 0.00 in0.0 mm 0.00 in0.0 mm
03:15 AM 49.2°F9.6°C 48.5°F9.2°C 98% Calm Calm -- 29.83 in1010.2 mb 0.00 in0.0 mm 0.00 in0.0 mm 0.00 in0.0 mm
03:20 AM 49.2°F9.6°C 48.5°F9.2°C 98% Calm Calm -- 29.85 in1010.8 mb 0.00 in0.0 mm 0.00 in0.0 mm 0.00 in0.0 mm
03:25 AM 49.0°F9.4°C 48.3°F9.1°C 98% Calm Calm -- 29.85 in1010.8 mb 0.00 in0.0 mm 0.00 in0.0 mm 0.00 in0.0 mm
03:30 AM 49.0°F9.4°C 48.3°F9.1°C 98% Calm Calm -- 29.85 in1010.8 mb 0.00 in0.0 mm 0.00 in0.0 mm 0.00 in0.0 mm
03:35 AM 49.0°F9.4°C 48.3°F9.1°C 98% 2.2 mph SSE3.5 kmh SSE 2.2 mph3.5 kmh 29.85 in1010.8 mb 0.00 in0.0 mm 0.00 in0.0 mm 0.00 in0.0 mm
03:40 AM 49.0°F9.4°C 48.3°F9.1°C 98% Calm Calm 2.2 mph3.5 kmh 29.85 in1010.8 mb 0.00 in0.0 mm 0.00 in0.0 mm 0.00 in0.0 mm
03:46 AM 48.8°F9.3°C 48.1°F8.9°C 98% Calm Calm 3.2 mph5.1 kmh 29.85 in1010.8 mb 0.00 in0.0 mm 0.00 in0.0 mm 0.00 in0.0 mm
03:51 AM 48.6°F9.2°C 47.9°F8.8°C 98% 3.3 mph SSE5.3 kmh SSE 4.0 mph6.4 kmh 29.85 in1010.8 mb 0.00 in0.0 mm 0.00 in0.0 mm 0.00 in0.0 mm
03:56 AM 48.6°F9.2°C 47.9°F8.8°C 98% Calm Calm 4.0 mph6.4 kmh 29.85 in1010.8 mb 0.00 in0.0 mm 0.00 in0.0 mm 0.00 in0.0 mm
04:01 AM 48.6°F9.2°C 47.9°F8.8°C 98% Calm Calm -- 29.85 in1010.8 mb 0.00 in0.0 mm 0.00 in0.0 mm 0.00 in0.0 mm
04:08 AM 48.6°F9.2°C 47.9°F8.8°C 98% Calm Calm 2.2 mph3.5 kmh 29.85 in1010.8 mb 0.00 in0.0 mm 0.00 in0.0 mm 0.00 in0.0 mm
04:13 AM 48.8°F9.3°C 48.1°F8.9°C 98% Calm Calm 2.2 mph3.5 kmh 29.85 in1010.8 mb 0.00 in0.0 mm 0.00 in0.0 mm 0.00 in0.0 mm
04:19 AM 48.8°F9.3°C 48.1°F8.9°C 98% Calm Calm -- 29.85 in1010.8 mb 0.00 in0.0 mm 0.00 in0.0 mm 0.00 in0.0 mm
04:24 AM 48.8°F9.3°C 48.1°F8.9°C 98% Calm Calm -- 29.85 in1010.8 mb 0.00 in0.0 mm 0.00 in0.0 mm 0.00 in0.0 mm
04:29 AM 49.0°F9.4°C 48.3°F9.1°C 98% Calm Calm -- 29.85 in1010.8 mb 0.00 in0.0 mm 0.00 in0.0 mm 0.00 in0.0 mm
04:34 AM 49.0°F9.4°C 48.3°F9.1°C 98% Calm Calm -- 29.85 in1010.8 mb 0.00 in0.0 mm 0.00 in0.0 mm 0.00 in0.0 mm
04:39 AM 49.0°F9.4°C 48.3°F9.1°C 98% Calm Calm -- 29.85 in1010.8 mb 0.00 in0.0 mm 0.00 in0.0 mm 0.00 in0.0 mm
04:44 AM 48.8°F9.3°C 48.1°F8.9°C 98% Calm Calm -- 29.85 in1010.8 mb 0.00 in0.0 mm 0.00 in0.0 mm 0.00 in0.0 mm
04:50 AM 48.8°F9.3°C 48.1°F8.9°C 98% Calm Calm -- 29.85 in1010.8 mb 0.00 in0.0 mm 0.00 in0.0 mm 0.00 in0.0 mm
04:55 AM 48.6°F9.2°C 47.9°F8.8°C 98% Calm Calm -- 29.85 in1010.8 mb 0.00 in0.0 mm 0.00 in0.0 mm 0.00 in0.0 mm
05:00 AM 48.6°F9.2°C 47.9°F8.8°C 98% 2.4 mph SSE3.9 kmh SSE 2.6 mph4.2 kmh 29.85 in1010.8 mb 0.00 in0.0 mm 0.00 in0.0 mm 0.00 in0.0 mm
05:05 AM 48.6°F9.2°C 47.9°F8.8°C 98% Calm Calm 3.2 mph5.1 kmh 29.85 in1010.8 mb 0.00 in0.0 mm 0.00 in0.0 mm 0.00 in0.0 mm
05:11 AM 48.5°F9.2°C 47.8°F8.8°C 98% Calm Calm 3.2 mph5.1 kmh 29.85 in1010.8 mb 0.00 in0.0 mm 0.00 in0.0 mm 0.00 in0.0 mm
05:16 AM 48.6°F9.2°C 47.9°F8.8°C 98% Calm Calm 2.2 mph3.5 kmh 29.85 in1010.8 mb 0.00 in0.0 mm 0.00 in0.0 mm 0.00 in0.0 mm
05:23 AM 48.6°F9.2°C 47.9°F8.8°C 98% Calm Calm -- 29.85 in1010.8 mb 0.00 in0.0 mm 0.00 in0.0 mm 0.00 in0.0 mm
05:28 AM 48.5°F9.2°C 47.8°F8.8°C 98% Calm Calm -- 29.85 in1010.8 mb 0.00 in0.0 mm 0.00 in0.0 mm 0.00 in0.0 mm
05:33 AM 48.5°F9.2°C 47.8°F8.8°C 98% Calm Calm -- 29.85 in1010.8 mb 0.00 in0.0 mm 0.00 in0.0 mm 0.00 in0.0 mm
05:38 AM 48.5°F9.2°C 47.8°F8.8°C 98% Calm Calm -- 29.85 in1010.8 mb 0.00 in0.0 mm 0.00 in0.0 mm 0.00 in0.0 mm
05:43 AM 48.3°F9.1°C 47.6°F8.7°C 98% Calm Calm -- 29.85 in1010.8 mb 0.00 in0.0 mm 0.00 in0.0 mm 0.00 in0.0 mm
05:48 AM 48.1°F8.9°C 47.5°F8.6°C 98% Calm Calm -- 29.85 in1010.8 mb 0.00 in0.0 mm 0.00 in0.0 mm 0.00 in0.0 mm
05:53 AM 47.9°F8.8°C 47.3°F8.5°C 98% Calm Calm -- 29.88 in1011.9 mb 0.00 in0.0 mm 0.00 in0.0 mm 0.00 in0.0 mm
05:58 AM 47.7°F8.7°C 47.1°F8.4°C 98% Calm Calm -- 29.88 in1011.9 mb 0.00 in0.0 mm 0.00 in0.0 mm 0.00 in0.0 mm
06:03 AM 47.7°F8.7°C 47.1°F8.4°C 98% Calm Calm -- 29.88 in1011.9 mb 0.00 in0.0 mm 0.00 in0.0 mm 0.00 in0.0 mm
06:08 AM 47.6°F8.7°C 47.0°F8.3°C 98% Calm Calm -- 29.85 in1010.8 mb 0.00 in0.0 mm 0.00 in0.0 mm 0.00 in0.0 mm
06:13 AM 47.6°F8.7°C 47.0°F8.3°C 98% Calm Calm -- 29.85 in1010.8 mb 0.00 in0.0 mm 0.00 in0.0 mm 0.00 in0.0 mm
06:18 AM 47.4°F8.6°C 46.8°F8.2°C 98% Calm Calm -- 29.85 in1010.8 mb 0.00 in0.0 mm 0.00 in0.0 mm 0.00 in0.0 mm
06:23 AM 47.4°F8.6°C 46.8°F8.2°C 98% Calm Calm -- 29.85 in1010.8 mb 0.00 in0.0 mm 0.00 in0.0 mm 0.00 in0.0 mm
06:28 AM 47.4°F8.6°C 46.8°F8.2°C 98% Calm Calm -- 29.85 in1010.8 mb 0.00 in0.0 mm 0.00 in0.0 mm 0.00 in0.0 mm
06:34 AM 47.2°F8.4°C 46.6°F8.1°C 98% Calm Calm -- 29.85 in1010.8 mb 0.00 in0.0 mm 0.00 in0.0 mm 0.00 in0.0 mm
06:39 AM 47.2°F8.4°C 46.6°F8.1°C 98% Calm Calm -- 29.83 in1010.2 mb 0.00 in0.0 mm 0.00 in0.0 mm 0.00 in0.0 mm
06:44 AM 47.2°F8.4°C 46.6°F8.1°C 98% Calm Calm -- 29.83 in1010.2 mb 0.00 in0.0 mm 0.00 in0.0 mm 0.00 in0.0 mm
06:49 AM 47.2°F8.4°C 46.6°F8.1°C 98% Calm Calm -- 29.83 in1010.2 mb 0.00 in0.0 mm 0.00 in0.0 mm 0.00 in0.0 mm
06:54 AM 47.2°F8.4°C 46.6°F8.1°C 98% Calm Calm -- 29.85 in1010.8 mb 0.00 in0.0 mm 0.00 in0.0 mm 0.00 in0.0 mm
06:59 AM 47.2°F8.4°C 46.6°F8.1°C 98% Calm Calm -- 29.85 in1010.8 mb 0.00 in0.0 mm 0.00 in0.0 mm 0.00 in0.0 mm
07:05 AM 47.4°F8.6°C 46.8°F8.2°C 98% Calm Calm -- 29.85 in1010.8 mb 0.00 in0.0 mm 0.00 in0.0 mm 0.00 in0.0 mm
07:10 AM 47.4°F8.6°C 46.8°F8.2°C 98% Calm Calm -- 29.85 in1010.8 mb 0.00 in0.0 mm 0.00 in0.0 mm 0.00 in0.0 mm
07:15 AM 47.7°F8.7°C 47.1°F8.4°C 98% Calm Calm -- 29.85 in1010.8 mb 0.00 in0.0 mm 0.00 in0.0 mm 0.00 in0.0 mm
07:20 AM 48.1°F8.9°C 47.5°F8.6°C 98% Calm Calm -- 29.85 in1010.8 mb 0.00 in0.0 mm 0.00 in0.0 mm 0.00 in0.0 mm
07:26 AM 48.5°F9.2°C 47.8°F8.8°C 98% Calm Calm -- 29.85 in1010.8 mb 0.00 in0.0 mm 0.00 in0.0 mm 0.00 in0.0 mm
07:31 AM 48.5°F9.2°C 47.8°F8.8°C 98% Calm Calm -- 29.85 in1010.8 mb 0.00 in0.0 mm 0.00 in0.0 mm 0.00 in0.0 mm
07:36 AM 48.8°F9.3°C 48.1°F8.9°C 98% Calm Calm -- 29.88 in1011.9 mb 0.00 in0.0 mm 0.00 in0.0 mm 0.00 in0.0 mm
07:41 AM 49.2°F9.6°C 48.5°F9.2°C 98% Calm Calm -- 29.88 in1011.9 mb 0.00 in0.0 mm 0.00 in0.0 mm 0.00 in0.0 mm
07:46 AM 49.7°F9.8°C 49.0°F9.4°C 98% Calm Calm -- 29.88 in1011.9 mb 0.00 in0.0 mm 0.00 in0.0 mm 0.00 in0.0 mm
07:51 AM 50.4°F10.2°C 49.7°F9.8°C 98% Calm Calm -- 29.88 in1011.9 mb 0.00 in0.0 mm 0.00 in0.0 mm 0.00 in0.0 mm
07:56 AM 51.2°F10.7°C 50.5°F10.3°C 98% Calm Calm -- 29.88 in1011.9 mb 0.00 in0.0 mm 0.00 in0.0 mm 0.00 in0.0 mm
08:01 AM 51.5°F10.8°C 50.8°F10.4°C 98% Calm Calm -- 29.88 in1011.9 mb 0.00 in0.0 mm 0.00 in0.0 mm 0.00 in0.0 mm
08:06 AM 52.1°F11.2°C 51.4°F10.8°C 98% Calm Calm -- 29.88 in1011.9 mb 0.00 in0.0 mm 0.00 in0.0 mm 0.00 in0.0 mm
08:11 AM 52.6°F11.4°C 51.9°F11.1°C 98% Calm Calm -- 29.88 in1011.9 mb 0.00 in0.0 mm 0.00 in0.0 mm 0.00 in0.0 mm
08:17 AM 53.5°F11.9°C 52.8°F11.6°C 98% Calm Calm -- 29.88 in1011.9 mb 0.00 in0.0 mm 0.00 in0.0 mm 0.00 in0.0 mm
08:22 AM 54.0°F12.2°C 53.3°F11.8°C 98% Calm Calm -- 29.88 in1011.9 mb 0.00 in0.0 mm 0.00 in0.0 mm 0.00 in0.0 mm
08:27 AM 54.6°F12.6°C 53.9°F12.2°C 98% Calm Calm -- 29.88 in1011.9 mb 0.00 in0.0 mm 0.00 in0.0 mm 0.00 in0.0 mm
08:32 AM 55.1°F12.8°C 54.4°F12.4°C 98% Calm Calm -- 29.88 in1011.9 mb 0.00 in0.0 mm 0.00 in0.0 mm 0.00 in0.0 mm
08:38 AM 55.8°F13.2°C 55.1°F12.8°C 98% Calm Calm 3.2 mph5.1 kmh 29.88 in1011.9 mb 0.00 in0.0 mm 0.00 in0.0 mm 0.00 in0.0 mm
08:43 AM 56.6°F13.7°C 55.9°F13.3°C 98% Calm Calm 3.2 mph5.1 kmh 29.88 in1011.9 mb 0.00 in0.0 mm 0.00 in0.0 mm 0.00 in0.0 mm
08:49 AM 57.6°F14.2°C 56.9°F13.8°C 98% Calm Calm -- 29.88 in1011.9 mb 0.00 in0.0 mm 0.00 in0.0 mm 0.00 in0.0 mm
08:54 AM 58.5°F14.7°C 57.8°F14.3°C 98% Calm Calm -- 29.88 in1011.9 mb 0.00 in0.0 mm 0.00 in0.0 mm 0.00 in0.0 mm
08:59 AM 59.4°F15.2°C 58.7°F14.8°C 98% 2.8 mph SSE4.5 kmh SSE 3.2 mph5.1 kmh 29.88 in1011.9 mb 0.00 in0.0 mm 0.00 in0.0 mm 0.00 in0.0 mm
09:04 AM 60.4°F15.8°C 59.8°F15.4°C 98% 2.1 mph SSE3.4 kmh SSE 3.2 mph5.1 kmh 29.88 in1011.9 mb 0.00 in0.0 mm 0.00 in0.0 mm 0.00 in0.0 mm
09:09 AM 61.5°F16.4°C 60.9°F16.1°C 98% Calm Calm 2.2 mph3.5 kmh 29.88 in1011.9 mb 0.00 in0.0 mm 0.00 in0.0 mm 0.00 in0.0 mm
09:14 AM 62.6°F17.0°C 61.4°F16.3°C 96% Calm Calm -- 29.88 in1011.9 mb 0.00 in0.0 mm 0.00 in0.0 mm 0.00 in0.0 mm
09:22 AM 64.2°F17.9°C 60.8°F16.0°C 89% 2.4 mph SSW3.9 kmh SSW 5.0 mph8.0 kmh 29.88 in1011.9 mb 0.00 in0.0 mm 0.00 in0.0 mm 0.00 in0.0 mm
09:27 AM 64.9°F18.3°C 59.0°F15.0°C 81% 2.5 mph SSW4.0 kmh SSW 5.0 mph8.0 kmh 29.88 in1011.9 mb 0.00 in0.0 mm 0.00 in0.0 mm 0.00 in0.0 mm
09:32 AM 65.5°F18.6°C 58.5°F14.7°C 78% 2.3 mph SSE3.7 kmh SSE 4.0 mph6.4 kmh 29.88 in1011.9 mb 0.00 in0.0 mm 0.00 in0.0 mm 0.00 in0.0 mm
09:37 AM 66.5°F19.2°C 57.7°F14.3°C 73% 2.8 mph SSE4.5 kmh SSE 4.4 mph7.1 kmh 29.88 in1011.9 mb 0.00 in0.0 mm 0.00 in0.0 mm 0.00 in0.0 mm
09:42 AM 68.2°F20.1°C 57.0°F13.9°C 67% 1.8 mph SSE2.9 kmh SSE 4.4 mph7.1 kmh 29.88 in1011.9 mb 0.00 in0.0 mm 0.00 in0.0 mm 0.00 in0.0 mm
09:47 AM 68.9°F20.5°C 52.1°F11.2°C 55% 2.9 mph S4.7 kmh S 5.4 mph8.7 kmh 29.88 in1011.9 mb 0.00 in0.0 mm 0.00 in0.0 mm 0.00 in0.0 mm
09:52 AM 70.1°F21.2°C 53.3°F11.8°C 55% 4.2 mph WSW6.8 kmh WSW 5.8 mph9.3 kmh 29.88 in1011.9 mb 0.00 in0.0 mm 0.00 in0.0 mm 0.00 in0.0 mm
09:57 AM 70.3°F21.3°C 49.1°F9.5°C 47% 5.2 mph W8.4 kmh W 7.2 mph11.6 kmh 29.88 in1011.9 mb 0.00 in0.0 mm 0.00 in0.0 mm 0.00 in0.0 mm
10:05 AM 72.5°F22.5°C 53.4°F11.9°C 51% 2.0 mph S3.2 kmh S 7.2 mph11.6 kmh 29.88 in1011.9 mb 0.00 in0.0 mm 0.00 in0.0 mm 0.00 in0.0 mm
10:10 AM 73.7°F23.2°C 53.9°F12.2°C 50% 3.0 mph N4.8 kmh N 5.4 mph8.7 kmh 29.88 in1011.9 mb 0.00 in0.0 mm 0.00 in0.0 mm 0.00 in0.0 mm
10:15 AM 74.8°F23.8°C 54.9°F12.7°C 50% 2.7 mph SE4.3 kmh SE 6.2 mph10.0 kmh 29.88 in1011.9 mb 0.00 in0.0 mm 0.00 in0.0 mm 0.00 in0.0 mm
10:20 AM 74.6°F23.7°C 51.2°F10.7°C 44% 4.2 mph W6.8 kmh W 6.2 mph10.0 kmh 29.88 in1011.9 mb 0.00 in0.0 mm 0.00 in0.0 mm 0.00 in0.0 mm
10:25 AM 75.0°F23.9°C 51.5°F10.8°C 44% 3.2 mph NW5.1 kmh NW 6.2 mph10.0 kmh 29.88 in1011.9 mb 0.00 in0.0 mm 0.00 in0.0 mm 0.00 in0.0 mm
10:30 AM 75.5°F24.2°C 51.3°F10.7°C 43% 3.2 mph NW5.1 kmh NW 5.8 mph9.3 kmh 29.88 in1011.9 mb 0.00 in0.0 mm 0.00 in0.0 mm 0.00 in0.0 mm
10:35 AM 74.6°F23.7°C 49.2°F9.6°C 41% 3.2 mph NW5.1 kmh NW 5.8 mph9.3 kmh 29.88 in1011.9 mb 0.00 in0.0 mm 0.00 in0.0 mm 0.00 in0.0 mm
10:40 AM 75.7°F24.3°C 50.2°F10.1°C 41% 4.5 mph WSW7.2 kmh WSW 5.8 mph9.3 kmh 29.88 in1011.9 mb 0.00 in0.0 mm 0.00 in0.0 mm 0.00 in0.0 mm
10:45 AM 76.4°F24.7°C 49.4°F9.7°C 39% 3.7 mph WNW6.0 kmh WNW 5.8 mph9.3 kmh 29.88 in1011.9 mb 0.00 in0.0 mm 0.00 in0.0 mm 0.00 in0.0 mm
10:50 AM 76.8°F24.9°C 49.8°F9.9°C 39% 4.5 mph N7.2 kmh N 12.6 mph20.3 kmh 29.88 in1011.9 mb 0.00 in0.0 mm 0.00 in0.0 mm 0.00 in0.0 mm
10:55 AM 76.6°F24.8°C 48.9°F9.4°C 38% 8.1 mph NNE13.0 kmh NNE 12.6 mph20.3 kmh 29.88 in1011.9 mb 0.00 in0.0 mm 0.00 in0.0 mm 0.00 in0.0 mm
11:00 AM 76.3°F24.6°C 48.6°F9.2°C 38% 4.4 mph WSW7.1 kmh WSW 11.2 mph18.0 kmh 29.88 in1011.9 mb 0.00 in0.0 mm 0.00 in0.0 mm 0.00 in0.0 mm
11:07 AM 76.4°F24.7°C 50.1°F10.1°C 40% 4.2 mph N6.8 kmh N 8.6 mph13.8 kmh 29.88 in1011.9 mb 0.00 in0.0 mm 0.00 in0.0 mm 0.00 in0.0 mm
11:12 AM 76.3°F24.6°C 47.9°F8.8°C 37% 6.4 mph W10.3 kmh W 8.6 mph13.8 kmh 29.88 in1011.9 mb 0.00 in0.0 mm 0.00 in0.0 mm 0.00 in0.0 mm
11:17 AM 76.8°F24.9°C 48.4°F9.1°C 37% 3.7 mph NW6.0 kmh NW 8.6 mph13.8 kmh 29.88 in1011.9 mb 0.00 in0.0 mm 0.00 in0.0 mm 0.00 in0.0 mm
11:22 AM 76.8°F24.9°C 46.9°F8.3°C 35% 3.2 mph WSW5.1 kmh WSW 6.8 mph10.9 kmh 29.88 in1011.9 mb 0.00 in0.0 mm 0.00 in0.0 mm 0.00 in0.0 mm
11:27 AM 76.6°F24.8°C 47.4°F8.6°C 36% 5.9 mph W9.5 kmh W 7.6 mph12.2 kmh 29.88 in1011.9 mb 0.00 in0.0 mm 0.00 in0.0 mm 0.00 in0.0 mm
11:32 AM 77.3°F25.2°C 48.8°F9.3°C 37% 6.6 mph N10.6 kmh N 8.6 mph13.8 kmh 29.88 in1011.9 mb 0.00 in0.0 mm 0.00 in0.0 mm 0.00 in0.0 mm
11:37 AM 77.7°F25.4°C 48.4°F9.1°C 36% 6.8 mph N10.9 kmh N 11.2 mph18.0 kmh 29.88 in1011.9 mb 0.00 in0.0 mm 0.00 in0.0 mm 0.00 in0.0 mm
11:42 AM 78.8°F26.0°C 50.1°F10.1°C 37% 3.4 mph N5.5 kmh N 11.2 mph18.0 kmh 29.88 in1011.9 mb 0.00 in0.0 mm 0.00 in0.0 mm 0.00 in0.0 mm
11:50 AM 77.3°F25.2°C 46.5°F8.1°C 34% 7.2 mph NNW11.6 kmh NNW 9.8 mph15.8 kmh 29.88 in1011.9 mb 0.00 in0.0 mm 0.00 in0.0 mm 0.00 in0.0 mm
11:55 AM 78.8°F26.0°C 48.6°F9.2°C 35% 4.9 mph N7.9 kmh N 11.2 mph18.0 kmh 29.88 in1011.9 mb 0.00 in0.0 mm 0.00 in0.0 mm 0.00 in0.0 mm
12:00 PM 78.8°F26.0°C 48.6°F9.2°C 35% 5.7 mph N9.2 kmh N 11.2 mph18.0 kmh 29.88 in1011.9 mb 0.00 in0.0 mm 0.00 in0.0 mm 0.00 in0.0 mm
12:05 PM 78.2°F25.7°C 48.1°F8.9°C 35% 3.4 mph NW5.5 kmh NW 11.2 mph18.0 kmh 29.88 in1011.9 mb 0.00 in0.0 mm 0.00 in0.0 mm 0.00 in0.0 mm
12:10 PM 78.6°F25.9°C 48.4°F9.1°C 35% 3.2 mph WSW5.1 kmh WSW 6.8 mph10.9 kmh 29.88 in1011.9 mb 0.00 in0.0 mm 0.00 in0.0 mm 0.00 in0.0 mm
12:15 PM 78.6°F25.9°C 48.4°F9.1°C 35% 4.4 mph W7.1 kmh W 6.8 mph10.9 kmh 29.88 in1011.9 mb 0.00 in0.0 mm 0.00 in0.0 mm 0.00 in0.0 mm
12:20 PM 79.1°F26.2°C 48.1°F8.9°C 34% 3.6 mph SW5.8 kmh SW 6.2 mph10.0 kmh 29.88 in1011.9 mb 0.00 in0.0 mm 0.00 in0.0 mm 0.00 in0.0 mm
12:25 PM 80.4°F26.9°C 50.0°F10.0°C 35% 4.3 mph SW6.9 kmh SW 5.8 mph9.3 kmh 29.88 in1011.9 mb 0.00 in0.0 mm 0.00 in0.0 mm 0.00 in0.0 mm
12:30 PM 80.4°F26.9°C 50.0°F10.0°C 35% 4.6 mph SW7.4 kmh SW 7.2 mph11.6 kmh 29.88 in1011.9 mb 0.00 in0.0 mm 0.00 in0.0 mm 0.00 in0.0 mm
12:35 PM 79.3°F26.3°C 48.3°F9.1°C 34% 5.6 mph W9.0 kmh W 7.6 mph12.2 kmh 29.88 in1011.9 mb 0.00 in0.0 mm 0.00 in0.0 mm 0.00 in0.0 mm
12:43 PM 77.2°F25.1°C 45.6°F7.6°C 33% 4.2 mph NW6.8 kmh NW 7.2 mph11.6 kmh 29.88 in1011.9 mb 0.00 in0.0 mm 0.00 in0.0 mm 0.00 in0.0 mm
12:48 PM 78.4°F25.8°C 46.7°F8.2°C 33% 3.7 mph WNW6.0 kmh WNW 6.2 mph10.0 kmh 29.88 in1011.9 mb 0.00 in0.0 mm 0.00 in0.0 mm 0.00 in0.0 mm
12:53 PM 79.1°F26.2°C 47.3°F8.5°C 33% 4.8 mph WSW7.7 kmh WSW 8.0 mph12.9 kmh 29.85 in1010.8 mb 0.00 in0.0 mm 0.00 in0.0 mm 0.00 in0.0 mm
12:58 PM 79.7°F26.5°C 47.0°F8.3°C 32% 5.7 mph SW9.2 kmh SW 8.0 mph12.9 kmh 29.85 in1010.8 mb 0.00 in0.0 mm 0.00 in0.0 mm 0.00 in0.0 mm
01:03 PM 78.6°F25.9°C 46.1°F7.8°C 32% 5.5 mph W8.9 kmh W 12.6 mph20.3 kmh 29.85 in1010.8 mb 0.00 in0.0 mm 0.00 in0.0 mm 0.00 in0.0 mm
01:08 PM 80.0°F26.7°C 48.1°F8.9°C 33% 4.7 mph WSW7.6 kmh WSW 12.6 mph20.3 kmh 29.85 in1010.8 mb 0.00 in0.0 mm 0.00 in0.0 mm 0.00 in0.0 mm
01:14 PM 80.0°F26.7°C 48.9°F9.4°C 34% 4.6 mph WSW7.4 kmh WSW 7.6 mph12.2 kmh 29.85 in1010.8 mb 0.00 in0.0 mm 0.00 in0.0 mm 0.00 in0.0 mm
01:19 PM 79.3°F26.3°C 46.7°F8.2°C 32% 6.9 mph SW11.1 kmh SW 11.6 mph18.7 kmh 29.85 in1010.8 mb 0.00 in0.0 mm 0.00 in0.0 mm 0.00 in0.0 mm
01:24 PM 80.2°F26.8°C 47.4°F8.6°C 32% 3.9 mph WSW6.3 kmh WSW 11.6 mph18.7 kmh 29.85 in1010.8 mb 0.00 in0.0 mm 0.00 in0.0 mm 0.00 in0.0 mm
01:29 PM 80.9°F27.2°C 48.1°F8.9°C 32% 4.2 mph WNW6.8 kmh WNW 7.6 mph12.2 kmh 29.85 in1010.8 mb 0.00 in0.0 mm 0.00 in0.0 mm 0.00 in0.0 mm
01:35 PM 80.8°F27.1°C 47.1°F8.4°C 31% 5.5 mph W8.9 kmh W 8.0 mph12.9 kmh 29.83 in1010.2 mb 0.00 in0.0 mm 0.00 in0.0 mm 0.00 in0.0 mm
01:40 PM 80.9°F27.2°C 48.1°F8.9°C 32% 5.4 mph W8.7 kmh W 8.0 mph12.9 kmh 29.83 in1010.2 mb 0.00 in0.0 mm 0.00 in0.0 mm 0.00 in0.0 mm
01:45 PM 82.0°F27.8°C 48.2°F9.0°C 31% 4.0 mph WSW6.4 kmh WSW 8.0 mph12.9 kmh 29.83 in1010.2 mb 0.00 in0.0 mm 0.00 in0.0 mm 0.00 in0.0 mm
01:50 PM 82.0°F27.8°C 48.2°F9.0°C 31% 6.2 mph SW10.0 kmh SW 9.8 mph15.8 kmh 29.85 in1010.8 mb 0.00 in0.0 mm 0.00 in0.0 mm 0.00 in0.0 mm
01:55 PM 82.0°F27.8°C 48.2°F9.0°C 31% 8.0 mph SSW12.9 kmh SSW 12.0 mph19.3 kmh 29.85 in1010.8 mb 0.00 in0.0 mm 0.00 in0.0 mm 0.00 in0.0 mm
02:00 PM 81.8°F27.7°C 48.8°F9.3°C 32% 4.5 mph S7.2 kmh S 12.0 mph19.3 kmh 29.85 in1010.8 mb 0.00 in0.0 mm 0.00 in0.0 mm 0.00 in0.0 mm
02:05 PM 82.2°F27.9°C 48.3°F9.1°C 31% 3.8 mph SW6.1 kmh SW 8.6 mph13.8 kmh 29.85 in1010.8 mb 0.00 in0.0 mm 0.00 in0.0 mm 0.00 in0.0 mm
02:10 PM 81.8°F27.7°C 48.0°F8.9°C 31% 4.6 mph W7.4 kmh W 7.2 mph11.6 kmh 29.85 in1010.8 mb 0.00 in0.0 mm 0.00 in0.0 mm 0.00 in0.0 mm
02:16 PM 82.4°F28.0°C 47.6°F8.7°C 30% 7.0 mph WSW11.3 kmh WSW 10.8 mph17.4 kmh 29.85 in1010.8 mb 0.00 in0.0 mm 0.00 in0.0 mm 0.00 in0.0 mm
02:21 PM 82.9°F28.3°C 48.1°F8.9°C 30% 4.9 mph WSW7.9 kmh WSW 10.8 mph17.4 kmh 29.85 in1010.8 mb 0.00 in0.0 mm 0.00 in0.0 mm 0.00 in0.0 mm
02:26 PM 82.4°F28.0°C 47.6°F8.7°C 30% 4.0 mph SW6.4 kmh SW 12.6 mph20.3 kmh 29.85 in1010.8 mb 0.00 in0.0 mm 0.00 in0.0 mm 0.00 in0.0 mm
02:31 PM 83.1°F28.4°C 48.2°F9.0°C 30% 3.8 mph SW6.1 kmh SW 12.6 mph20.3 kmh 29.85 in1010.8 mb 0.00 in0.0 mm 0.00 in0.0 mm 0.00 in0.0 mm
02:36 PM 82.7°F28.2°C 47.9°F8.8°C 30% 6.4 mph SW10.3 kmh SW 9.8 mph15.8 kmh 29.85 in1010.8 mb 0.00 in0.0 mm 0.00 in0.0 mm 0.00 in0.0 mm
02:41 PM 82.7°F28.2°C 47.9°F8.8°C 30% 5.7 mph SW9.2 kmh SW 9.8 mph15.8 kmh 29.85 in1010.8 mb 0.00 in0.0 mm 0.00 in0.0 mm 0.00 in0.0 mm
02:46 PM 82.9°F28.3°C 48.1°F8.9°C 30% 6.4 mph S10.3 kmh S 9.8 mph15.8 kmh 29.85 in1010.8 mb 0.00 in0.0 mm 0.00 in0.0 mm 0.00 in0.0 mm
02:51 PM 82.6°F28.1°C 46.9°F8.3°C 29% 6.9 mph SW11.1 kmh SW 9.8 mph15.8 kmh 29.85 in1010.8 mb 0.00 in0.0 mm 0.00 in0.0 mm 0.00 in0.0 mm
02:57 PM 82.6°F28.1°C 46.9°F8.3°C 29% 3.6 mph SW5.8 kmh SW 9.8 mph15.8 kmh 29.85 in1010.8 mb 0.00 in0.0 mm 0.00 in0.0 mm 0.00 in0.0 mm
03:02 PM 82.2°F27.9°C 46.6°F8.1°C 29% 5.6 mph WSW9.0 kmh WSW 9.8 mph15.8 kmh 29.85 in1010.8 mb 0.00 in0.0 mm 0.00 in0.0 mm 0.00 in0.0 mm
03:07 PM 82.0°F27.8°C 46.4°F8.0°C 29% 5.3 mph WSW8.5 kmh WSW 13.0 mph20.9 kmh 29.83 in1010.2 mb 0.00 in0.0 mm 0.00 in0.0 mm 0.00 in0.0 mm
03:12 PM 82.4°F28.0°C 46.7°F8.2°C 29% 5.2 mph W8.4 kmh W 13.0 mph20.9 kmh 29.83 in1010.2 mb 0.00 in0.0 mm 0.00 in0.0 mm 0.00 in0.0 mm
03:17 PM 82.4°F28.0°C 46.7°F8.2°C 29% 6.3 mph SW10.1 kmh SW 9.4 mph15.1 kmh 29.83 in1010.2 mb 0.00 in0.0 mm 0.00 in0.0 mm 0.00 in0.0 mm
03:22 PM 82.7°F28.2°C 47.0°F8.3°C 29% 5.0 mph SE8.0 kmh SE 11.6 mph18.7 kmh 29.83 in1010.2 mb 0.00 in0.0 mm 0.00 in0.0 mm 0.00 in0.0 mm
03:27 PM 81.3°F27.4°C 45.8°F7.7°C 29% 6.4 mph WSW10.3 kmh WSW 13.0 mph20.9 kmh 29.83 in1010.2 mb 0.00 in0.0 mm 0.00 in0.0 mm 0.00 in0.0 mm
03:32 PM 80.9°F27.2°C 45.5°F7.5°C 29% 6.0 mph W9.7 kmh W 13.0 mph20.9 kmh 29.83 in1010.2 mb 0.00 in0.0 mm 0.00 in0.0 mm 0.00 in0.0 mm
03:38 PM 80.9°F27.2°C 46.3°F7.9°C 30% 4.8 mph WNW7.7 kmh WNW 12.6 mph20.3 kmh 29.83 in1010.2 mb 0.00 in0.0 mm 0.00 in0.0 mm 0.00 in0.0 mm
03:43 PM 79.3°F26.3°C 44.1°F6.7°C 29% 6.0 mph W9.7 kmh W 8.0 mph12.9 kmh 29.83 in1010.2 mb 0.00 in0.0 mm 0.00 in0.0 mm 0.00 in0.0 mm
03:51 PM 80.8°F27.1°C 45.4°F7.4°C 29% 5.7 mph W9.2 kmh W 8.6 mph13.8 kmh 29.83 in1010.2 mb 0.00 in0.0 mm 0.00 in0.0 mm 0.00 in0.0 mm
03:56 PM 79.9°F26.6°C 45.5°F7.5°C 30% 5.0 mph W8.0 kmh W 11.2 mph18.0 kmh 29.83 in1010.2 mb 0.00 in0.0 mm 0.00 in0.0 mm 0.00 in0.0 mm
04:01 PM 80.4°F26.9°C 45.9°F7.7°C 30% 6.4 mph W10.3 kmh W 11.2 mph18.0 kmh 29.83 in1010.2 mb 0.00 in0.0 mm 0.00 in0.0 mm 0.00 in0.0 mm
04:06 PM 79.9°F26.6°C 45.5°F7.5°C 30% 6.0 mph WSW9.7 kmh WSW 9.8 mph15.8 kmh 29.80 in1009.1 mb 0.00 in0.0 mm 0.00 in0.0 mm 0.00 in0.0 mm
04:11 PM 81.3°F27.4°C 46.7°F8.2°C 30% 4.0 mph SE6.4 kmh SE 9.8 mph15.8 kmh 29.80 in1009.1 mb 0.00 in0.0 mm 0.00 in0.0 mm 0.00 in0.0 mm
04:16 PM 81.3°F27.4°C 45.8°F7.7°C 29% 4.3 mph SW6.9 kmh SW 9.0 mph14.5 kmh 29.80 in1009.1 mb 0.00 in0.0 mm 0.00 in0.0 mm 0.00 in0.0 mm
04:21 PM 81.7°F27.6°C 47.0°F8.3°C 30% 2.7 mph W4.3 kmh W 8.6 mph13.8 kmh 29.80 in1009.1 mb 0.00 in0.0 mm 0.00 in0.0 mm 0.00 in0.0 mm
04:26 PM 81.8°F27.7°C 46.2°F7.9°C 29% 5.9 mph WSW9.5 kmh WSW 10.8 mph17.4 kmh 29.80 in1009.1 mb 0.00 in0.0 mm 0.00 in0.0 mm 0.00 in0.0 mm
04:31 PM 80.4°F26.9°C 45.9°F7.7°C 30% 5.2 mph WNW8.4 kmh WNW 10.8 mph17.4 kmh 29.80 in1009.1 mb 0.00 in0.0 mm 0.00 in0.0 mm 0.00 in0.0 mm
04:36 PM 80.8°F27.1°C 46.3°F7.9°C 30% 4.5 mph WSW7.2 kmh WSW 8.0 mph12.9 kmh 29.80 in1009.1 mb 0.00 in0.0 mm 0.00 in0.0 mm 0.00 in0.0 mm
04:41 PM 80.8°F27.1°C 45.4°F7.4°C 29% 5.3 mph S8.5 kmh S 8.0 mph12.9 kmh 29.80 in1009.1 mb 0.00 in0.0 mm 0.00 in0.0 mm 0.00 in0.0 mm
04:46 PM 80.4°F26.9°C 45.9°F7.7°C 30% 4.8 mph S7.7 kmh S 8.0 mph12.9 kmh 29.80 in1009.1 mb 0.00 in0.0 mm 0.00 in0.0 mm 0.00 in0.0 mm
04:52 PM 79.0°F26.1°C 44.7°F7.1°C 30% 5.3 mph W8.5 kmh W 11.2 mph18.0 kmh 29.80 in1009.1 mb 0.00 in0.0 mm 0.00 in0.0 mm 0.00 in0.0 mm
04:57 PM 78.6°F25.9°C 44.4°F6.9°C 30% 3.1 mph N5.0 kmh N 11.2 mph18.0 kmh 29.80 in1009.1 mb 0.00 in0.0 mm 0.00 in0.0 mm 0.00 in0.0 mm
05:02 PM 78.1°F25.6°C 44.8°F7.1°C 31% 6.4 mph NW10.3 kmh NW 8.6 mph13.8 kmh 29.80 in1009.1 mb 0.00 in0.0 mm 0.00 in0.0 mm 0.00 in0.0 mm
05:07 PM 77.7°F25.4°C 44.4°F6.9°C 31% 5.1 mph WSW8.2 kmh WSW 8.6 mph13.8 kmh 29.80 in1009.1 mb 0.00 in0.0 mm 0.00 in0.0 mm 0.00 in0.0 mm
05:13 PM 77.0°F25.0°C 43.8°F6.6°C 31% 4.7 mph SSW7.6 kmh SSW 13.0 mph20.9 kmh 29.80 in1009.1 mb 0.00 in0.0 mm 0.00 in0.0 mm 0.00 in0.0 mm
05:18 PM 77.0°F25.0°C 43.8°F6.6°C 31% 5.5 mph SSW8.9 kmh SSW 13.0 mph20.9 kmh 29.80 in1009.1 mb 0.00 in0.0 mm 0.00 in0.0 mm 0.00 in0.0 mm
05:23 PM 76.8°F24.9°C 44.5°F6.9°C 32% 5.7 mph SSW9.2 kmh SSW 8.6 mph13.8 kmh 29.80 in1009.1 mb 0.00 in0.0 mm 0.00 in0.0 mm 0.00 in0.0 mm
05:28 PM 76.6°F24.8°C 44.3°F6.8°C 32% 4.4 mph SW7.1 kmh SW 8.6 mph13.8 kmh 29.80 in1009.1 mb 0.00 in0.0 mm 0.00 in0.0 mm 0.00 in0.0 mm
05:34 PM 76.3°F24.6°C 44.0°F6.7°C 32% 4.3 mph SSW6.9 kmh SSW 8.6 mph13.8 kmh 29.80 in1009.1 mb 0.00 in0.0 mm 0.00 in0.0 mm 0.00 in0.0 mm
05:39 PM 76.3°F24.6°C 44.0°F6.7°C 32% 4.7 mph WSW7.6 kmh WSW 7.6 mph12.2 kmh 29.80 in1009.1 mb 0.00 in0.0 mm 0.00 in0.0 mm 0.00 in0.0 mm
05:45 PM 76.3°F24.6°C 44.0°F6.7°C 32% 4.4 mph NW7.1 kmh NW 7.6 mph12.2 kmh 29.80 in1009.1 mb 0.00 in0.0 mm 0.00 in0.0 mm 0.00 in0.0 mm
05:50 PM 76.3°F24.6°C 44.9°F7.2°C 33% 3.9 mph NE6.3 kmh NE 8.0 mph12.9 kmh 29.80 in1009.1 mb 0.00 in0.0 mm 0.00 in0.0 mm 0.00 in0.0 mm
05:55 PM 75.7°F24.3°C 44.3°F6.8°C 33% 5.2 mph SW8.4 kmh SW 8.0 mph12.9 kmh 29.80 in1009.1 mb 0.00 in0.0 mm 0.00 in0.0 mm 0.00 in0.0 mm
06:00 PM 75.7°F24.3°C 44.3°F6.8°C 33% 3.2 mph WNW5.1 kmh WNW 7.2 mph11.6 kmh 29.80 in1009.1 mb 0.00 in0.0 mm 0.00 in0.0 mm 0.00 in0.0 mm
06:06 PM 75.5°F24.2°C 44.2°F6.8°C 33% 3.3 mph SW5.3 kmh SW 6.8 mph10.9 kmh 29.80 in1009.1 mb 0.00 in0.0 mm 0.00 in0.0 mm 0.00 in0.0 mm
06:11 PM 75.2°F24.0°C 43.9°F6.6°C 33% 2.9 mph S4.7 kmh S 6.8 mph10.9 kmh 29.80 in1009.1 mb 0.00 in0.0 mm 0.00 in0.0 mm 0.00 in0.0 mm
06:16 PM 75.0°F23.9°C 42.9°F6.1°C 32% 3.4 mph E5.5 kmh E 6.8 mph10.9 kmh 29.80 in1009.1 mb 0.00 in0.0 mm 0.00 in0.0 mm 0.00 in0.0 mm
06:21 PM 74.6°F23.7°C 43.4°F6.3°C 33% 3.8 mph SW6.1 kmh SW 6.8 mph10.9 kmh 29.80 in1009.1 mb 0.00 in0.0 mm 0.00 in0.0 mm 0.00 in0.0 mm
06:28 PM 74.6°F23.7°C 43.4°F6.3°C 33% 3.8 mph SSW6.1 kmh SSW 7.2 mph11.6 kmh 29.80 in1009.1 mb 0.00 in0.0 mm 0.00 in0.0 mm 0.00 in0.0 mm
06:33 PM 74.6°F23.7°C 43.4°F6.3°C 33% 5.1 mph SW8.2 kmh SW 7.6 mph12.2 kmh 29.80 in1009.1 mb 0.00 in0.0 mm 0.00 in0.0 mm 0.00 in0.0 mm
06:38 PM 74.3°F23.5°C 43.1°F6.2°C 33% 3.6 mph S5.8 kmh S 7.6 mph12.2 kmh 29.80 in1009.1 mb 0.00 in0.0 mm 0.00 in0.0 mm 0.00 in0.0 mm
06:43 PM 74.1°F23.4°C 42.9°F6.1°C 33% 3.7 mph S6.0 kmh S 7.6 mph12.2 kmh 29.80 in1009.1 mb 0.00 in0.0 mm 0.00 in0.0 mm 0.00 in0.0 mm
06:48 PM 73.6°F23.1°C 42.5°F5.8°C 33% 2.0 mph S3.2 kmh S 6.2 mph10.0 kmh 29.80 in1009.1 mb 0.00 in0.0 mm 0.00 in0.0 mm 0.00 in0.0 mm
06:53 PM 73.4°F23.0°C 42.3°F5.7°C 33% 2.7 mph S4.3 kmh S 5.8 mph9.3 kmh 29.80 in1009.1 mb 0.00 in0.0 mm 0.00 in0.0 mm 0.00 in0.0 mm
06:59 PM 72.8°F22.7°C 42.6°F5.9°C 34% 2.8 mph S4.5 kmh S 5.8 mph9.3 kmh 29.80 in1009.1 mb 0.00 in0.0 mm 0.00 in0.0 mm 0.00 in0.0 mm
07:04 PM 72.3°F22.4°C 42.1°F5.6°C 34% 2.4 mph S3.9 kmh S 4.4 mph7.1 kmh 29.80 in1009.1 mb 0.00 in0.0 mm 0.00 in0.0 mm 0.00 in0.0 mm
07:09 PM 71.9°F22.2°C 41.8°F5.4°C 34% 2.4 mph S3.9 kmh S 4.0 mph6.4 kmh 29.80 in1009.1 mb 0.00 in0.0 mm 0.00 in0.0 mm 0.00 in0.0 mm
07:14 PM 71.6°F22.0°C 41.5°F5.3°C 34% 2.4 mph S3.9 kmh S 3.2 mph5.1 kmh 29.80 in1009.1 mb 0.00 in0.0 mm 0.00 in0.0 mm 0.00 in0.0 mm
07:19 PM 71.4°F21.9°C 41.3°F5.2°C 34% Calm Calm 3.2 mph5.1 kmh 29.80 in1009.1 mb 0.00 in0.0 mm 0.00 in0.0 mm 0.00 in0.0 mm
07:24 PM 71.0°F21.7°C 41.7°F5.4°C 35% Calm Calm 2.2 mph3.5 kmh 29.80 in1009.1 mb 0.00 in0.0 mm 0.00 in0.0 mm 0.00 in0.0 mm
07:29 PM 70.7°F21.5°C 41.5°F5.3°C 35% Calm Calm -- 29.80 in1009.1 mb 0.00 in0.0 mm 0.00 in0.0 mm 0.00 in0.0 mm
07:34 PM 70.3°F21.3°C 41.1°F5.1°C 35% Calm Calm -- 29.80 in1009.1 mb 0.00 in0.0 mm 0.00 in0.0 mm 0.00 in0.0 mm
07:40 PM 69.6°F20.9°C 42.7°F5.9°C 38% Calm Calm -- 29.80 in1009.1 mb 0.00 in0.0 mm 0.00 in0.0 mm 0.00 in0.0 mm
07:45 PM 69.1°F20.6°C 42.9°F6.1°C 39% Calm Calm -- 29.80 in1009.1 mb 0.00 in0.0 mm 0.00 in0.0 mm 0.00 in0.0 mm
07:50 PM 68.7°F20.4°C 44.5°F6.9°C 42% Calm Calm -- 29.83 in1010.2 mb 0.00 in0.0 mm 0.00 in0.0 mm 0.00 in0.0 mm
07:55 PM 68.3°F20.2°C 44.2°F6.8°C 42% Calm Calm -- 29.83 in1010.2 mb 0.00 in0.0 mm 0.00 in0.0 mm 0.00 in0.0 mm
08:00 PM 68.2°F20.1°C 43.4°F6.3°C 41% 2.8 mph S4.5 kmh S 3.2 mph5.1 kmh 29.83 in1010.2 mb 0.00 in0.0 mm 0.00 in0.0 mm 0.00 in0.0 mm
08:05 PM 68.0°F20.0°C 43.3°F6.3°C 41% 1.8 mph S2.9 kmh S 3.2 mph5.1 kmh 29.83 in1010.2 mb 0.00 in0.0 mm 0.00 in0.0 mm 0.00 in0.0 mm
08:10 PM 67.4°F19.7°C 43.4°F6.3°C 42% Calm Calm 3.2 mph5.1 kmh 29.83 in1010.2 mb 0.00 in0.0 mm 0.00 in0.0 mm 0.00 in0.0 mm
08:15 PM 67.1°F19.5°C 43.7°F6.5°C 43% Calm Calm -- 29.83 in1010.2 mb 0.00 in0.0 mm 0.00 in0.0 mm 0.00 in0.0 mm
08:21 PM 66.7°F19.3°C 43.4°F6.3°C 43% Calm Calm -- 29.85 in1010.8 mb 0.00 in0.0 mm 0.00 in0.0 mm 0.00 in0.0 mm
08:26 PM 66.5°F19.2°C 42.6°F5.9°C 42% Calm Calm -- 29.85 in1010.8 mb 0.00 in0.0 mm 0.00 in0.0 mm 0.00 in0.0 mm
08:31 PM 66.2°F19.0°C 43.5°F6.4°C 44% 2.1 mph S3.4 kmh S 2.6 mph4.2 kmh 29.85 in1010.8 mb 0.00 in0.0 mm 0.00 in0.0 mm 0.00 in0.0 mm
08:36 PM 65.8°F18.8°C 44.4°F6.9°C 46% Calm Calm 2.6 mph4.2 kmh 29.85 in1010.8 mb 0.00 in0.0 mm 0.00 in0.0 mm 0.00 in0.0 mm
08:41 PM 65.5°F18.6°C 43.5°F6.4°C 45% Calm Calm -- 29.85 in1010.8 mb 0.00 in0.0 mm 0.00 in0.0 mm 0.00 in0.0 mm
08:46 PM 64.9°F18.3°C 44.7°F7.1°C 48% 1.8 mph S2.9 kmh S 3.2 mph5.1 kmh 29.85 in1010.8 mb 0.00 in0.0 mm 0.00 in0.0 mm 0.00 in0.0 mm
08:52 PM 64.2°F17.9°C 45.2°F7.3°C 50% 3.2 mph S5.1 kmh S 3.2 mph5.1 kmh 29.85 in1010.8 mb 0.00 in0.0 mm 0.00 in0.0 mm 0.00 in0.0 mm
08:57 PM 63.7°F17.6°C 45.8°F7.7°C 52% Calm Calm 3.2 mph5.1 kmh 29.85 in1010.8 mb 0.00 in0.0 mm 0.00 in0.0 mm 0.00 in0.0 mm
09:03 PM 63.1°F17.3°C 44.2°F6.8°C 50% Calm Calm 2.2 mph3.5 kmh 29.85 in1010.8 mb 0.00 in0.0 mm 0.00 in0.0 mm 0.00 in0.0 mm
09:08 PM 63.1°F17.3°C 43.6°F6.4°C 49% 1.8 mph S2.9 kmh S 2.6 mph4.2 kmh 29.85 in1010.8 mb 0.00 in0.0 mm 0.00 in0.0 mm 0.00 in0.0 mm
09:14 PM 62.9°F17.2°C 43.4°F6.3°C 49% Calm Calm 2.6 mph4.2 kmh 29.85 in1010.8 mb 0.00 in0.0 mm 0.00 in0.0 mm 0.00 in0.0 mm
09:19 PM 62.6°F17.0°C 43.1°F6.2°C 49% Calm Calm -- 29.85 in1010.8 mb 0.00 in0.0 mm 0.00 in0.0 mm 0.00 in0.0 mm
09:24 PM 62.0°F16.7°C 45.2°F7.3°C 54% Calm Calm -- 29.85 in1010.8 mb 0.00 in0.0 mm 0.00 in0.0 mm 0.00 in0.0 mm
09:29 PM 61.5°F16.4°C 44.7°F7.1°C 54% 2.3 mph S3.7 kmh S 2.6 mph4.2 kmh 29.85 in1010.8 mb 0.00 in0.0 mm 0.00 in0.0 mm 0.00 in0.0 mm
09:35 PM 61.0°F16.1°C 45.3°F7.4°C 56% Calm Calm 3.2 mph5.1 kmh 29.83 in1010.2 mb 0.00 in0.0 mm 0.00 in0.0 mm 0.00 in0.0 mm
09:40 PM 60.2°F15.7°C 45.9°F7.7°C 59% Calm Calm 2.6 mph4.2 kmh 29.83 in1010.2 mb 0.00 in0.0 mm 0.00 in0.0 mm 0.00 in0.0 mm
09:45 PM 59.9°F15.5°C 46.1°F7.8°C 60% Calm Calm -- 29.83 in1010.2 mb 0.00 in0.0 mm 0.00 in0.0 mm 0.00 in0.0 mm
09:50 PM 59.6°F15.3°C 46.2°F7.9°C 61% 2.2 mph S3.5 kmh S 2.2 mph3.5 kmh 29.85 in1010.8 mb 0.00 in0.0 mm 0.00 in0.0 mm 0.00 in0.0 mm
09:57 PM 59.4°F15.2°C 47.2°F8.4°C 64% Calm Calm 2.2 mph3.5 kmh 29.85 in1010.8 mb 0.00 in0.0 mm 0.00 in0.0 mm 0.00 in0.0 mm
10:02 PM 59.3°F15.2°C 47.6°F8.7°C 65% Calm Calm -- 29.85 in1010.8 mb 0.00 in0.0 mm 0.00 in0.0 mm 0.00 in0.0 mm
10:07 PM 59.1°F15.1°C 47.0°F8.3°C 64% Calm Calm -- 29.85 in1010.8 mb 0.00 in0.0 mm 0.00 in0.0 mm 0.00 in0.0 mm
10:12 PM 59.1°F15.1°C 46.5°F8.1°C 63% Calm Calm -- 29.85 in1010.8 mb 0.00 in0.0 mm 0.00 in0.0 mm 0.00 in0.0 mm
10:17 PM 59.1°F15.1°C 46.5°F8.1°C 63% Calm Calm -- 29.85 in1010.8 mb 0.00 in0.0 mm 0.00 in0.0 mm 0.00 in0.0 mm
10:22 PM 58.9°F14.9°C 46.8°F8.2°C 64% Calm Calm -- 29.88 in1011.9 mb 0.00 in0.0 mm 0.00 in0.0 mm 0.00 in0.0 mm
10:28 PM 58.9°F14.9°C 47.2°F8.4°C 65% Calm Calm -- 29.88 in1011.9 mb 0.00 in0.0 mm 0.00 in0.0 mm 0.00 in0.0 mm
10:33 PM 58.5°F14.7°C 48.0°F8.9°C 68% 2.3 mph S3.7 kmh S 2.6 mph4.2 kmh 29.88 in1011.9 mb 0.00 in0.0 mm 0.00 in0.0 mm 0.00 in0.0 mm
10:38 PM 58.4°F14.7°C 48.7°F9.3°C 70% Calm Calm 2.6 mph4.2 kmh 29.88 in1011.9 mb 0.00 in0.0 mm 0.00 in0.0 mm 0.00 in0.0 mm
10:43 PM 58.2°F14.6°C 47.7°F8.7°C 68% 1.8 mph S2.9 kmh S 2.6 mph4.2 kmh 29.88 in1011.9 mb 0.00 in0.0 mm 0.00 in0.0 mm 0.00 in0.0 mm
10:49 PM 58.2°F14.6°C 47.3°F8.5°C 67% Calm Calm 2.6 mph4.2 kmh 29.88 in1011.9 mb 0.00 in0.0 mm 0.00 in0.0 mm 0.00 in0.0 mm
10:53 PM 58.4°F14.7°C 47.1°F8.4°C 66% Calm Calm 1.8 mph2.9 kmh 29.88 in1011.9 mb 0.00 in0.0 mm 0.00 in0.0 mm 0.00 in0.0 mm
11:00 PM 58.4°F14.7°C 47.1°F8.4°C 66% 4.3 mph NNE6.9 kmh NNE 5.0 mph8.0 kmh 29.88 in1011.9 mb 0.00 in0.0 mm 0.00 in0.0 mm 0.00 in0.0 mm
11:05 PM 58.5°F14.7°C 47.2°F8.4°C 66% Calm Calm 5.0 mph8.0 kmh 29.88 in1011.9 mb 0.00 in0.0 mm 0.00 in0.0 mm 0.00 in0.0 mm
11:10 PM 58.7°F14.8°C 48.6°F9.2°C 69% 2.9 mph NW4.7 kmh NW 5.0 mph8.0 kmh 29.88 in1011.9 mb 0.00 in0.0 mm 0.00 in0.0 mm 0.00 in0.0 mm
11:15 PM 60.2°F15.7°C 46.4°F8.0°C 60% 4.3 mph N6.9 kmh N 12.6 mph20.3 kmh 29.88 in1011.9 mb 0.00 in0.0 mm 0.00 in0.0 mm 0.00 in0.0 mm
11:21 PM 61.1°F16.2°C 45.8°F7.7°C 57% 2.9 mph 4.7 kmh 12.6 mph20.3 kmh 29.88 in1011.9 mb 0.00 in0.0 mm 0.00 in0.0 mm 0.00 in0.0 mm
11:26 PM 61.5°F16.4°C 45.2°F7.3°C 55% 2.3 mph 3.7 kmh 6.8 mph10.9 kmh 29.88 in1011.9 mb 0.00 in0.0 mm 0.00 in0.0 mm 0.00 in0.0 mm
11:31 PM 61.3°F16.3°C 44.6°F7.0°C 54% 2.3 mph NNE3.7 kmh NNE 5.4 mph8.7 kmh 29.88 in1011.9 mb 0.00 in0.0 mm 0.00 in0.0 mm 0.00 in0.0 mm
11:36 PM 61.3°F16.3°C 43.5°F6.4°C 52% 4.8 mph NE7.7 kmh NE 5.8 mph9.3 kmh 29.91 in1012.9 mb 0.00 in0.0 mm 0.00 in0.0 mm 0.00 in0.0 mm
11:42 PM 61.3°F16.3°C 43.5°F6.4°C 52% 6.8 mph NNE10.9 kmh NNE 8.6 mph13.8 kmh 29.91 in1012.9 mb 0.00 in0.0 mm 0.00 in0.0 mm 0.00 in0.0 mm
11:47 PM 61.1°F16.2°C 42.8°F6.0°C 51% 4.5 mph NE7.2 kmh NE 9.0 mph14.5 kmh 29.91 in1012.9 mb 0.00 in0.0 mm 0.00 in0.0 mm 0.00 in0.0 mm
11:52 PM 61.1°F16.2°C 42.8°F6.0°C 51% 3.8 mph NNE6.1 kmh NNE 11.6 mph18.7 kmh 29.91 in1012.9 mb 0.00 in0.0 mm 0.00 in0.0 mm 0.00 in0.0 mm
11:57 PM 61.1°F16.2°C 41.8°F5.4°C 49% 7.9 mph NNE12.7 kmh NNE 11.6 mph18.7 kmh 29.91 in1012.9 mb 0.00 in0.0 mm 0.00 in0.0 mm 0.00 in0.0 mm